Time;durP1;ratioP1;P1;durP2;ratioP2;P2;SDS_P1;SDS_P2;PMS_P1;PMS_P2;Temp;Humidity;BMP_temperature;BMP_pressure;BME280_temperature;BME280_humidity;BME280_pressure;Samples;Min_cycle;Max_cycle;Signal;HPM_P1;HPM_P2
2022/08/25 00:02:05;;;;;;;40.88;37.33;;;19.80;99.90;;;;;;5043214;28;20059;-55
2022/08/25 00:04:34;;;;;;;39.50;36.13;;;19.80;99.90;;;;;;5025500;28;20053;-55
2022/08/25 00:07:04;;;;;;;39.10;35.92;;;19.80;99.90;;;;;;5020264;28;20052;-54
2022/08/25 00:09:32;;;;;;;38.28;35.10;;;19.80;99.90;;;;;;5024744;28;20231;-57
2022/08/25 00:11:58;;;;;;;38.90;35.78;;;19.80;99.90;;;;;;5024185;28;20526;-56
2022/08/25 00:14:29;;;;;;;39.50;36.38;;;19.80;99.90;;;;;;5023531;28;20050;-53
2022/08/25 00:16:56;;;;;;;37.72;34.28;;;19.80;99.90;;;;;;5024018;28;20404;-53
2022/08/25 00:19:27;;;;;;;39.67;35.80;;;19.80;99.90;;;;;;5019588;28;20038;-51
2022/08/25 00:21:54;;;;;;;37.95;34.50;;;19.80;99.90;;;;;;5017200;28;20409;-51
2022/08/25 00:24:21;;;;;;;42.33;38.78;;;19.80;99.90;;;;;;5022139;28;20069;-52
2022/08/25 00:26:51;;;;;;;40.33;36.63;;;19.90;99.90;;;;;;5022090;28;20053;-52
2022/08/25 00:29:18;;;;;;;42.15;38.33;;;19.80;99.90;;;;;;5023800;28;20127;-53
2022/08/25 00:31:44;;;;;;;40.83;37.15;;;19.90;99.90;;;;;;5023943;28;20508;-53
2022/08/25 00:34:17;;;;;;;41.22;37.70;;;19.90;99.90;;;;;;5023381;28;20060;-52
2022/08/25 00:36:43;;;;;;;38.45;35.35;;;19.90;99.90;;;;;;5023327;28;20050;-54
2022/08/25 00:39:10;;;;;;;38.58;35.63;;;19.90;99.90;;;;;;5022987;28;20407;-53
2022/08/25 00:41:38;;;;;;;39.05;35.60;;;19.90;99.90;;;;;;5023816;28;20052;-51
2022/08/25 00:44:07;;;;;;;38.45;34.88;;;19.90;99.90;;;;;;5022148;28;20595;-52
2022/08/25 00:46:48;;;;;;;36.22;33.13;;;19.80;99.90;;;;;;5022581;28;20143;-57
2022/08/25 00:49:24;;;;;;;35.60;32.63;;;19.80;99.90;;;;;;5016053;28;20065;-55
2022/08/25 00:51:57;;;;;;;39.05;35.85;;;19.80;99.90;;;;;;5022560;28;20046;-55
2022/08/25 00:54:31;;;;;;;37.45;34.13;;;19.80;99.90;;;;;;5024315;28;20081;-54
2022/08/25 00:56:58;;;;;;;35.65;32.40;;;19.80;99.90;;;;;;5017869;28;20123;-54
2022/08/25 00:59:26;;;;;;;33.17;30.48;;;19.80;99.90;;;;;;5022102;28;20053;-54
2022/08/25 01:01:54;;;;;;;35.75;32.72;;;19.80;99.90;;;;;;5021745;28;20049;-50
2022/08/25 01:04:21;;;;;;;33.30;30.38;;;19.70;99.90;;;;;;5023057;28;20042;-53
2022/08/25 01:06:53;;;;;;;33.33;30.55;;;19.70;99.90;;;;;;5020963;28;20053;-52
2022/08/25 01:09:19;;;;;;;30.98;28.27;;;19.70;99.90;;;;;;5023204;28;20057;-53
2022/08/25 01:11:46;;;;;;;29.02;26.48;;;19.70;99.90;;;;;;5021789;28;20064;-52
2022/08/25 01:14:15;;;;;;;30.45;27.52;;;19.70;99.90;;;;;;5023081;28;20049;-51
2022/08/25 01:16:42;;;;;;;28.58;26.02;;;19.70;99.90;;;;;;5021344;28;20771;-50
2022/08/25 01:19:12;;;;;;;27.83;25.38;;;19.70;99.90;;;;;;5022671;28;20053;-50
2022/08/25 01:21:45;;;;;;;25.88;23.27;;;19.70;99.90;;;;;;5023422;28;20053;-52
2022/08/25 01:24:20;;;;;;;25.92;23.45;;;19.70;99.90;;;;;;5021990;28;20053;-54
2022/08/25 01:26:46;;;;;;;24.13;21.92;;;19.60;99.90;;;;;;5022670;28;20053;-53
2022/08/25 01:29:24;;;;;;;21.67;19.83;;;19.60;99.90;;;;;;5023608;28;20550;-53
2022/08/25 01:31:57;;;;;;;21.90;19.77;;;19.60;99.90;;;;;;5023482;28;20051;-54
2022/08/25 01:34:27;;;;;;;19.95;18.05;;;19.60;99.90;;;;;;5023128;28;20566;-51
2022/08/25 01:36:55;;;;;;;18.92;17.00;;;19.60;99.90;;;;;;5022420;28;20500;-53
2022/08/25 01:39:22;;;;;;;17.63;16.02;;;19.70;99.90;;;;;;5013812;28;20533;-51
2022/08/25 01:41:47;;;;;;;18.70;16.58;;;19.60;99.90;;;;;;5019594;28;20045;-50
2022/08/25 01:44:14;;;;;;;18.42;16.67;;;19.70;99.90;;;;;;5021886;28;20175;-50
2022/08/25 01:46:41;;;;;;;16.90;14.85;;;19.60;99.90;;;;;;5021047;28;20219;-54
2022/08/25 01:49:07;;;;;;;18.08;16.30;;;19.60;99.90;;;;;;5022616;28;20142;-50
2022/08/25 01:51:41;;;;;;;16.17;14.75;;;19.60;99.90;;;;;;5024582;28;20649;-50
2022/08/25 01:54:06;;;;;;;17.92;14.45;;;19.60;99.90;;;;;;5023176;28;20065;-51
2022/08/25 01:56:33;;;;;;;16.40;14.82;;;19.70;99.90;;;;;;5023519;28;20049;-49
2022/08/25 01:58:59;;;;;;;15.98;14.38;;;19.70;99.90;;;;;;5024839;28;20115;-51
2022/08/25 02:01:25;;;;;;;16.08;14.48;;;19.60;99.90;;;;;;5025444;28;20472;-53
2022/08/25 02:03:54;;;;;;;14.10;12.88;;;19.70;99.90;;;;;;5024080;28;20045;-51
2022/08/25 02:06:32;;;;;;;14.63;13.40;;;19.60;99.90;;;;;;5024131;28;20087;-54
2022/08/25 02:09:03;;;;;;;15.10;13.52;;;19.60;99.90;;;;;;5021478;28;20053;-54
2022/08/25 02:11:29;;;;;;;14.18;12.80;;;19.60;99.90;;;;;;5025366;28;20124;-50
2022/08/25 02:13:55;;;;;;;13.27;12.13;;;19.50;99.90;;;;;;5026434;28;20506;-51
2022/08/25 02:16:28;;;;;;;13.02;11.82;;;19.50;99.90;;;;;;5026485;28;20055;-50
2022/08/25 02:18:54;;;;;;;;;;;19.50;99.90;;;;;;5025480;28;20136;-55
2022/08/25 02:21:20;;;;;;;13.10;11.77;;;19.50;99.90;;;;;;5024657;28;19925;-54
2022/08/25 02:23:46;;;;;;;15.52;11.82;;;19.50;99.90;;;;;;5024194;28;22156;-49
2022/08/25 02:26:17;;;;;;;12.00;10.90;;;19.40;99.90;;;;;;5025089;28;20049;-49
2022/08/25 02:28:47;;;;;;;12.23;11.13;;;19.50;99.90;;;;;;5023621;28;20056;-54
2022/08/25 02:31:14;;;;;;;11.68;10.48;;;19.40;99.90;;;;;;5023146;28;20124;-52
2022/08/25 02:33:39;;;;;;;11.35;10.02;;;19.40;99.90;;;;;;5022036;28;20057;-51
2022/08/25 02:36:06;;;;;;;9.90;8.90;;;19.40;99.90;;;;;;5023261;28;20046;-50
2022/08/25 02:38:33;;;;;;;14.07;10.25;;;19.30;99.90;;;;;;5023832;28;20144;-52
2022/08/25 02:40:59;;;;;;;10.38;9.48;;;19.30;99.90;;;;;;5022197;28;20119;-48
2022/08/25 02:43:26;;;;;;;12.95;9.15;;;19.30;99.90;;;;;;5023533;28;20071;-52
2022/08/25 02:45:54;;;;;;;12.55;8.82;;;19.30;99.90;;;;;;5024776;28;20049;-51
2022/08/25 02:48:20;;;;;;;10.75;8.30;;;19.30;99.90;;;;;;5022800;28;20603;-51
2022/08/25 02:50:48;;;;;;;8.40;7.57;;;19.30;99.90;;;;;;5023736;28;20092;-49
2022/08/25 02:53:14;;;;;;;8.73;7.80;;;19.30;99.90;;;;;;5023066;28;20053;-48
2022/08/25 02:55:40;;;;;;;9.48;8.02;;;19.30;99.90;;;;;;5023924;28;20048;-50
2022/08/25 02:58:07;;;;;;;7.68;6.93;;;19.30;99.90;;;;;;5023896;28;20048;-49
2022/08/25 03:00:34;;;;;;;10.93;7.25;;;19.30;99.90;;;;;;5023994;28;20136;-51
2022/08/25 03:03:00;;;;;;;8.30;7.47;;;19.30;99.90;;;;;;5022621;28;20607;-50
2022/08/25 03:05:26;;;;;;;8.55;7.20;;;19.30;99.90;;;;;;5023173;28;20053;-53
2022/08/25 03:07:51;;;;;;;7.80;7.10;;;19.30;99.90;;;;;;5041323;28;20150;-53
2022/08/25 03:10:19;;;;;;;10.23;7.15;;;19.30;99.90;;;;;;5043427;28;20500;-52
2022/08/25 03:12:46;;;;;;;7.72;6.70;;;19.30;99.90;;;;;;5042990;28;20110;-51
2022/08/25 03:15:15;;;;;;;10.60;6.90;;;19.20;99.90;;;;;;5042996;28;20436;-53
2022/08/25 03:17:43;;;;;;;7.75;6.85;;;19.20;99.90;;;;;;5043592;28;20059;-49
2022/08/25 03:20:09;;;;;;;12.15;7.10;;;19.20;99.90;;;;;;5043576;28;20053;-50
2022/08/25 03:22:35;;;;;;;6.90;6.30;;;19.20;99.90;;;;;;5042907;28;20499;-51
2022/08/25 03:27:48;;;;;;;8.40;6.32;;;19.10;99.90;;;;;;5043196;28;20095;-53
2022/08/25 03:30:14;;;;;;;12.70;7.25;;;19.10;99.90;;;;;;5043591;28;20170;-50
2022/08/25 03:32:41;;;;;;;9.95;7.55;;;19.10;99.90;;;;;;5042444;28;20055;-49
2022/08/25 03:35:08;;;;;;;9.73;6.63;;;19.10;99.90;;;;;;5026046;28;20060;-48
2022/08/25 03:37:34;;;;;;;7.03;6.18;;;19.10;99.90;;;;;;5045451;28;20048;-48
2022/08/25 03:40:03;;;;;;;7.18;6.50;;;19.10;99.90;;;;;;5045314;28;20068;-52
2022/08/25 03:42:28;;;;;;;9.75;6.97;;;19.10;99.90;;;;;;5021181;28;20544;-54
2022/08/25 03:44:54;;;;;;;8.13;7.03;;;19.10;99.90;;;;;;5038398;28;20044;-51
2022/08/25 03:47:20;;;;;;;7.35;6.45;;;19.10;99.90;;;;;;5041989;28;20818;-51
2022/08/25 03:49:46;;;;;;;9.75;6.75;;;19.10;99.90;;;;;;5042814;28;20060;-50
2022/08/25 03:52:12;;;;;;;7.93;6.35;;;19.00;99.90;;;;;;5022485;28;20179;-51
2022/08/25 03:54:38;;;;;;;7.50;5.50;;;19.00;99.90;;;;;;5024759;28;20060;-52
2022/08/25 03:57:05;;;;;;;7.63;6.35;;;19.00;99.90;;;;;;5041765;28;20049;-49
2022/08/25 03:59:30;;;;;;;8.38;5.78;;;19.00;99.90;;;;;;5042269;28;20579;-51
2022/08/25 04:01:56;;;;;;;11.70;6.50;;;19.00;99.90;;;;;;5040789;28;20045;-51
2022/08/25 04:04:22;;;;;;;8.38;6.45;;;19.00;99.90;;;;;;5024028;28;20103;-49
2022/08/25 04:06:47;;;;;;;8.13;5.72;;;19.00;99.90;;;;;;5023956;28;20445;-52
2022/08/25 04:09:13;;;;;;;7.07;5.95;;;19.00;99.90;;;;;;5042843;28;20057;-48
2022/08/25 04:11:40;;;;;;;8.25;6.15;;;19.00;99.90;;;;;;5040975;28;20069;-50
2022/08/25 04:14:06;;;;;;;6.68;5.57;;;19.00;99.90;;;;;;5041771;28;20048;-48
2022/08/25 04:16:33;;;;;;;9.75;6.55;;;19.00;99.90;;;;;;5041664;28;20087;-50
2022/08/25 04:19:02;;;;;;;8.00;5.85;;;19.00;99.90;;;;;;5040912;28;20573;-49
2022/08/25 04:21:28;;;;;;;6.78;5.55;;;19.10;99.90;;;;;;5042044;28;20049;-49
2022/08/25 04:23:55;;;;;;;14.07;6.43;;;19.00;99.90;;;;;;5022691;28;20063;-53
2022/08/25 04:26:25;;;;;;;7.50;6.15;;;19.00;99.90;;;;;;5042105;28;20090;-49
2022/08/25 04:28:52;;;;;;;6.03;5.40;;;19.00;99.90;;;;;;5040997;28;20497;-52
2022/08/25 04:31:20;;;;;;;9.88;5.20;;;19.10;99.90;;;;;;5024391;28;20613;-49
2022/08/25 04:33:47;;;;;;;8.68;5.78;;;19.10;99.90;;;;;;5041610;28;20049;-49
2022/08/25 04:36:13;;;;;;;9.80;5.47;;;19.10;99.90;;;;;;5041615;28;20500;-51
2022/08/25 04:38:40;;;;;;;6.35;5.18;;;19.00;99.90;;;;;;5040645;28;20051;-48
2022/08/25 04:41:08;;;;;;;7.65;5.50;;;19.10;99.90;;;;;;5024598;28;20116;-51
2022/08/25 04:43:34;;;;;;;6.47;5.85;;;19.00;99.90;;;;;;5041292;28;20100;-50
2022/08/25 04:46:10;;;;;;;6.60;5.20;;;19.10;99.90;;;;;;5024852;28;20051;-49
2022/08/25 04:48:36;;;;;;;8.60;5.65;;;19.10;99.90;;;;;;5042282;28;20098;-53
2022/08/25 04:51:10;;;;;;;7.18;5.53;;;19.00;99.90;;;;;;5039945;28;20053;-49
2022/08/25 04:53:37;;;;;;;6.78;5.45;;;19.10;99.90;;;;;;5042472;28;20254;-50
2022/08/25 04:56:08;;;;;;;8.95;6.60;;;19.10;99.90;;;;;;5041250;28;20049;-53
2022/08/25 04:58:34;;;;;;;9.95;5.68;;;19.10;99.90;;;;;;5042008;28;20076;-54
2022/08/25 05:01:07;;;;;;;7.45;5.53;;;19.10;99.90;;;;;;5025695;28;20092;-53
2022/08/25 05:03:33;;;;;;;9.63;6.13;;;19.10;99.90;;;;;;5021356;28;20041;-52
2022/08/25 05:05:59;;;;;;;8.02;6.00;;;19.20;99.90;;;;;;5038150;28;20298;-53
2022/08/25 05:08:25;;;;;;;9.45;5.90;;;19.20;99.90;;;;;;5041629;28;20845;-52
2022/08/25 05:10:53;;;;;;;6.75;5.72;;;19.20;99.90;;;;;;5040898;28;20045;-49
2022/08/25 05:13:20;;;;;;;6.03;5.40;;;19.30;99.90;;;;;;5040318;28;20436;-50
2022/08/25 05:15:54;;;;;;;9.75;5.57;;;19.30;99.90;;;;;;5040828;28;20045;-52
2022/08/25 05:18:21;;;;;;;6.88;5.32;;;19.40;99.90;;;;;;5040654;28;20045;-49
2022/08/25 05:20:48;;;;;;;9.35;5.97;;;19.40;99.90;;;;;;5041903;28;20053;-48
2022/08/25 05:23:14;;;;;;;7.20;4.80;;;19.50;99.90;;;;;;5041808;28;20144;-52
2022/08/25 05:25:41;;;;;;;8.05;6.28;;;20.10;99.90;;;;;;5045599;28;20500;-48
2022/08/25 05:28:07;;;;;;;6.13;4.90;;;21.00;99.90;;;;;;5045322;28;20053;-48
2022/08/25 05:30:35;;;;;;;7.32;5.32;;;21.70;99.90;;;;;;5027170;28;20052;-49
2022/08/25 05:33:02;;;;;;;6.95;5.50;;;22.10;99.90;;;;;;5043352;28;20495;-52
2022/08/25 05:35:28;;;;;;;8.00;5.25;;;22.30;99.90;;;;;;5023972;28;20404;-51
2022/08/25 05:37:56;;;;;;;8.18;5.18;;;22.70;99.90;;;;;;5025876;28;20057;-49
2022/08/25 05:40:23;;;;;;;9.88;6.75;;;23.50;99.90;;;;;;5044684;28;20277;-50
2022/08/25 05:42:49;;;;;;;9.13;4.90;;;24.40;99.90;;;;;;5045217;28;20080;-51
2022/08/25 05:45:16;;;;;;;10.70;5.55;;;25.30;99.90;;;;;;5044975;28;20064;-52
2022/08/25 05:47:43;;;;;;;7.50;5.35;;;26.20;99.60;;;;;;5044913;28;20098;-51
2022/08/25 05:50:09;;;;;;;6.88;5.20;;;26.80;98.50;;;;;;5023709;28;20728;-50
2022/08/25 05:52:35;;;;;;;9.50;4.78;;;27.50;97.80;;;;;;5044205;28;20392;-52
2022/08/25 05:55:00;;;;;;;6.47;4.78;;;28.10;96.90;;;;;;5045328;28;20111;-53
2022/08/25 05:57:26;;;;;;;7.32;4.43;;;28.70;96.30;;;;;;5044298;28;20130;-51
2022/08/25 05:59:52;;;;;;;8.55;4.88;;;29.00;95.20;;;;;;5043489;28;20111;-52
2022/08/25 06:05:02;;;;;;;9.82;4.60;;;30.20;93.90;;;;;;5044803;28;20401;-51
2022/08/25 06:07:28;;;;;;;6.55;4.30;;;30.70;93.30;;;;;;5043062;28;20477;-53
2022/08/25 06:09:54;;;;;;;7.55;4.65;;;31.20;92.60;;;;;;5043915;28;20045;-54
2022/08/25 06:12:20;;;;;;;8.75;4.43;;;31.40;92.20;;;;;;5026231;28;20043;-51
2022/08/25 06:14:48;;;;;;;8.55;4.50;;;31.90;91.60;;;;;;5045173;28;20124;-55
2022/08/25 06:17:15;;;;;;;9.77;5.07;;;32.10;90.80;;;;;;5044082;28;20049;-54
2022/08/25 06:19:40;;;;;;;4.47;3.90;;;32.40;90.40;;;;;;5025280;28;20040;-54
2022/08/25 06:22:06;;;;;;;6.10;4.35;;;32.20;90.00;;;;;;5045027;28;20045;-56
2022/08/25 06:24:32;;;;;;;5.75;4.55;;;32.90;88.90;;;;;;5046678;28;20057;-55
2022/08/25 06:26:58;;;;;;;8.65;4.68;;;33.00;88.40;;;;;;5046111;28;20088;-54
2022/08/25 06:29:25;;;;;;;9.95;4.55;;;33.20;87.80;;;;;;5045208;28;20052;-58
2022/08/25 06:31:50;;;;;;;5.60;4.68;;;33.50;87.10;;;;;;5044436;28;20076;-56
2022/08/25 06:34:17;;;;;;;8.23;4.05;;;34.10;86.10;;;;;;5025689;28;20052;-56
2022/08/25 06:36:43;;;;;;;5.15;3.95;;;34.00;85.60;;;;;;5044305;28;20056;-56
2022/08/25 06:39:09;;;;;;;8.38;5.38;;;34.10;85.40;;;;;;5026795;28;20049;-55
2022/08/25 06:41:35;;;;;;;8.48;4.50;;;34.10;84.50;;;;;;5018938;28;20056;-56
2022/08/25 06:44:01;;;;;;;10.57;4.38;;;33.60;84.50;;;;;;5043742;28;20363;-55
2022/08/25 06:46:28;;;;;;;5.75;4.20;;;33.50;85.00;;;;;;5042552;28;20328;-55
2022/08/25 06:48:55;;;;;;;6.72;4.13;;;33.20;84.80;;;;;;5043182;28;20124;-56
2022/08/25 06:51:22;;;;;;;7.20;4.40;;;33.40;84.40;;;;;;5043060;28;20045;-55
2022/08/25 06:53:49;;;;;;;8.52;4.75;;;33.60;84.10;;;;;;5043899;28;20050;-57
2022/08/25 06:56:17;;;;;;;6.18;4.30;;;34.00;84.00;;;;;;5023291;28;20053;-55
2022/08/25 06:58:42;;;;;;;9.02;4.60;;;33.50;83.40;;;;;;5018026;28;20049;-56
2022/08/25 07:01:14;;;;;;;6.22;4.55;;;33.40;84.10;;;;;;5043734;28;20142;-55
2022/08/25 07:03:40;;;;;;;7.80;4.37;;;33.50;83.50;;;;;;5042556;28;20134;-55
2022/08/25 07:06:09;;;;;;;15.43;4.88;;;34.00;83.60;;;;;;5041588;28;20499;-57
2022/08/25 07:08:35;;;;;;;6.85;4.40;;;33.90;83.20;;;;;;5043973;28;20148;-55
2022/08/25 07:11:08;;;;;;;6.85;4.47;;;33.60;83.60;;;;;;5043555;28;20048;-56
2022/08/25 07:13:35;;;;;;;6.88;4.60;;;33.00;83.80;;;;;;5036404;28;20057;-56
2022/08/25 07:16:01;;;;;;;7.35;4.18;;;32.00;85.00;;;;;;5042799;28;20159;-56
2022/08/25 07:18:28;;;;;;;6.30;3.83;;;31.50;85.90;;;;;;5043824;28;20059;-57
2022/08/25 07:20:55;;;;;;;7.15;4.57;;;30.90;87.70;;;;;;5042510;28;20056;-57
2022/08/25 07:23:22;;;;;;;7.45;4.38;;;30.60;87.60;;;;;;5042025;28;20475;-56
2022/08/25 07:25:48;;;;;;;5.93;4.05;;;30.40;87.20;;;;;;5022543;28;20603;-57
2022/08/25 07:28:14;;;;;;;8.20;4.20;;;30.10;87.80;;;;;;5043034;28;20049;-56
2022/08/25 07:30:40;;;;;;;8.90;4.28;;;30.10;88.30;;;;;;5043272;28;20063;-58
2022/08/25 07:33:06;;;;;;;12.07;4.47;;;29.90;88.80;;;;;;5043118;28;20049;-57
2022/08/25 07:35:32;;;;;;;7.10;4.05;;;29.70;89.20;;;;;;5024946;28;20049;-56
2022/08/25 07:37:59;;;;;;;7.30;4.40;;;29.50;89.60;;;;;;5043460;28;20078;-57
2022/08/25 07:40:28;;;;;;;8.50;4.95;;;29.60;90.30;;;;;;5042007;28;20369;-57
2022/08/25 07:42:57;;;;;;;7.07;4.53;;;29.60;90.30;;;;;;5043492;28;20044;-57
2022/08/25 07:45:29;;;;;;;7.13;5.15;;;29.40;90.40;;;;;;5044082;28;20064;-56
2022/08/25 07:48:05;;;;;;;;;;;29.40;90.40;;;;;;5024876;28;20047;-57
2022/08/25 07:50:32;;;;;;;7.72;4.70;;;29.40;91.20;;;;;;5043192;28;19928;-57
2022/08/25 07:52:58;;;;;;;8.13;4.85;;;29.40;91.00;;;;;;5039662;28;20099;-57
2022/08/25 07:55:26;;;;;;;5.15;4.65;;;29.20;89.80;;;;;;5044863;28;20128;-58
2022/08/25 07:57:53;;;;;;;8.77;4.68;;;29.20;89.90;;;;;;5024518;28;20119;-57
2022/08/25 08:00:19;;;;;;;7.97;5.05;;;29.10;90.10;;;;;;5043084;28;20049;-57
2022/08/25 08:02:45;;;;;;;7.10;4.93;;;29.10;90.50;;;;;;5042864;28;20124;-57
2022/08/25 08:05:12;;;;;;;6.18;4.82;;;29.00;90.50;;;;;;5042416;28;20048;-57
2022/08/25 08:07:39;;;;;;;5.60;4.22;;;29.00;90.50;;;;;;5023844;28;20061;-56
2022/08/25 08:10:06;;;;;;;4.95;4.47;;;29.00;91.20;;;;;;5042324;28;20114;-57
2022/08/25 08:12:34;;;;;;;6.28;5.05;;;29.20;91.20;;;;;;5041745;28;20053;-57
2022/08/25 08:15:01;;;;;;;8.13;4.80;;;29.30;90.60;;;;;;5041315;28;20049;-58
2022/08/25 08:17:26;;;;;;;5.70;4.22;;;29.20;90.40;;;;;;5039093;28;20048;-58
2022/08/25 08:19:52;;;;;;;5.10;4.47;;;29.00;90.50;;;;;;5042083;28;20056;-57
2022/08/25 08:22:19;;;;;;;6.18;4.25;;;29.00;90.20;;;;;;5042196;28;20112;-57
2022/08/25 08:24:45;;;;;;;8.40;4.40;;;29.10;90.40;;;;;;5042349;28;20056;-58
2022/08/25 08:27:12;;;;;;;9.68;4.10;;;29.10;90.50;;;;;;5042067;28;20041;-59
2022/08/25 08:29:40;;;;;;;6.65;4.50;;;29.20;90.40;;;;;;5042398;28;20041;-57
2022/08/25 08:32:08;;;;;;;5.07;3.92;;;29.10;90.30;;;;;;5041476;28;20041;-58
2022/08/25 08:34:35;;;;;;;7.45;4.70;;;29.20;90.40;;;;;;5041249;28;20443;-58
2022/08/25 08:37:02;;;;;;;7.30;4.53;;;29.30;90.20;;;;;;5023274;28;20114;-57
2022/08/25 08:39:28;;;;;;;7.00;4.07;;;29.30;90.10;;;;;;5042095;28;20567;-58
2022/08/25 08:42:37;;;;;;;4.80;4.30;;;29.30;90.30;;;;;;5041778;28;20106;-58
2022/08/25 08:45:32;;;;;;;6.32;4.20;;;29.30;90.10;;;;;;5042172;28;20127;-58
2022/08/25 08:48:17;;;;;;;9.20;4.25;;;29.30;89.80;;;;;;5023832;28;20092;-58
2022/08/25 08:51:17;;;;;;;5.68;4.13;;;29.20;90.20;;;;;;5041456;28;20120;-58
2022/08/25 08:53:52;;;;;;;6.78;3.92;;;29.40;90.20;;;;;;5038778;28;20110;-58
2022/08/25 08:56:33;;;;;;;8.80;4.10;;;29.50;90.60;;;;;;5040358;28;20120;-58
2022/08/25 08:59:09;;;;;;;5.80;4.18;;;29.60;90.70;;;;;;5038746;28;20055;-59
2022/08/25 09:01:48;;;;;;;8.93;3.85;;;29.70;90.70;;;;;;5037874;28;20508;-58
2022/08/25 09:04:42;;;;;;;8.60;3.85;;;29.70;90.30;;;;;;5022830;28;20061;-58
2022/08/25 09:07:15;;;;;;;5.07;3.67;;;29.70;88.80;;;;;;5014012;28;20061;-59
2022/08/25 09:09:42;;;;;;;7.43;3.83;;;29.60;89.00;;;;;;5016932;28;20049;-58
2022/08/25 09:12:40;;;;;;;9.93;3.78;;;29.60;89.00;;;;;;5022420;28;20054;-60
2022/08/25 09:18:50;;;;;;;9.68;3.10;;;29.50;88.90;;;;;;5015749;28;20068;-59
2022/08/25 09:21:28;;;;;;;7.90;3.53;;;29.70;88.90;;;;;;5022622;28;20056;-58
2022/08/25 09:24:21;;;;;;;6.22;3.20;;;29.70;88.60;;;;;;5021252;28;20056;-59
2022/08/25 09:27:02;;;;;;;5.63;3.63;;;29.70;88.80;;;;;;5021287;28;20132;-59
2022/08/25 09:29:54;;;;;;;6.05;3.38;;;29.90;88.60;;;;;;5022464;28;20449;-58
2022/08/25 09:32:21;;;;;;;7.63;3.37;;;30.00;87.30;;;;;;5021130;28;20049;-59
2022/08/25 09:34:49;;;;;;;7.45;3.58;;;30.00;87.20;;;;;;5020659;28;20057;-59
2022/08/25 09:37:15;;;;;;;5.38;3.40;;;30.00;87.70;;;;;;5021605;28;20385;-59
2022/08/25 09:39:41;;;;;;;7.13;2.85;;;30.10;86.80;;;;;;5022400;28;20049;-58
2022/08/25 09:42:08;;;;;;;7.28;3.10;;;30.20;86.80;;;;;;5023277;28;20053;-58
2022/08/25 09:44:45;;;;;;;5.32;3.30;;;30.20;86.10;;;;;;5022980;28;20072;-58
2022/08/25 09:47:14;;;;;;;4.85;2.92;;;30.30;86.50;;;;;;5017836;28;20064;-59
2022/08/25 09:49:44;;;;;;;4.50;2.67;;;30.30;85.80;;;;;;5022715;28;20053;-59
2022/08/25 09:52:39;;;;;;;6.75;2.90;;;30.30;83.30;;;;;;5022627;28;20145;-58
2022/08/25 09:55:05;;;;;;;7.20;2.67;;;30.30;83.50;;;;;;5023057;28;20061;-58
2022/08/25 09:57:35;;;;;;;9.27;3.17;;;30.50;84.40;;;;;;5022313;28;20790;-59
2022/08/25 10:00:18;;;;;;;4.65;2.75;;;30.60;85.30;;;;;;5022207;28;20049;-58
2022/08/25 10:03:06;;;;;;;6.47;3.10;;;30.70;85.20;;;;;;5020868;28;20049;-58
2022/08/25 10:05:37;;;;;;;6.78;2.72;;;30.80;83.30;;;;;;5021881;28;20136;-59
2022/08/25 10:08:11;;;;;;;4.43;2.72;;;30.90;83.60;;;;;;5021863;28;20053;-59
2022/08/25 10:10:44;;;;;;;4.18;2.88;;;30.90;81.30;;;;;;5024670;28;20084;-59
2022/08/25 10:13:22;;;;;;;8.48;2.72;;;30.80;80.90;;;;;;5025889;28;20049;-59
2022/08/25 10:16:10;;;;;;;6.13;2.58;;;30.70;81.70;;;;;;5025870;28;20848;-58
2022/08/25 10:18:37;;;;;;;4.47;2.50;;;30.70;80.40;;;;;;5025434;28;20128;-59
2022/08/25 10:21:13;;;;;;;7.90;2.70;;;30.70;81.30;;;;;;5026038;28;20404;-59
2022/08/25 10:23:48;;;;;;;4.15;2.40;;;30.90;83.60;;;;;;5025081;28;20133;-58
2022/08/25 10:26:28;;;;;;;9.45;3.47;;;31.10;82.40;;;;;;5025394;28;20123;-59
2022/08/25 10:29:08;;;;;;;3.92;2.60;;;31.20;81.80;;;;;;5025407;28;20126;-59
2022/08/25 10:32:08;;;;;;;8.38;2.85;;;31.30;81.50;;;;;;5019135;28;20058;-58
2022/08/25 10:34:47;;;;;;;4.75;3.20;;;31.10;81.90;;;;;;4959228;28;20149;-59
2022/08/25 10:37:43;;;;;;;5.75;3.10;;;31.30;84.80;;;;;;4949884;28;20125;-60
2022/08/25 10:40:31;;;;;;;4.55;2.65;;;31.30;82.00;;;;;;4945660;28;20101;-59
2022/08/25 10:43:19;;;;;;;4.65;2.55;;;31.30;83.10;;;;;;4944395;28;20059;-59
2022/08/25 10:45:52;;;;;;;4.72;2.80;;;31.30;81.30;;;;;;4927637;28;20055;-58
2022/08/25 10:48:49;;;;;;;3.38;2.35;;;31.50;82.80;;;;;;4961064;28;20138;-59
2022/08/25 10:51:45;;;;;;;4.80;2.78;;;31.50;81.10;;;;;;4957762;28;20062;-58
2022/08/25 10:54:34;;;;;;;5.97;3.00;;;31.30;79.10;;;;;;4962968;28;20409;-58
2022/08/25 10:57:09;;;;;;;4.50;2.88;;;31.40;82.20;;;;;;4962874;28;20043;-59
2022/08/25 10:59:45;;;;;;;5.50;2.72;;;31.50;82.40;;;;;;4961575;28;20061;-59
2022/08/25 11:02:36;;;;;;;4.22;2.70;;;31.50;82.80;;;;;;4962759;28;20078;-59
2022/08/25 11:05:08;;;;;;;6.63;3.00;;;31.60;80.60;;;;;;4950340;28;20068;-60
2022/08/25 11:07:38;;;;;;;3.03;2.60;;;31.50;79.30;;;;;;4963124;28;20430;-59
2022/08/25 11:10:09;;;;;;;3.97;2.67;;;31.40;80.60;;;;;;4961464;28;20050;-60
2022/08/25 11:12:43;;;;;;;3.40;2.90;;;31.40;79.90;;;;;;5024329;28;20058;-59
2022/08/25 11:15:15;;;;;;;7.22;3.00;;;31.30;79.40;;;;;;5019119;28;20501;-58
2022/08/25 11:17:49;;;;;;;;;;;31.20;80.40;;;;;;5021938;28;20057;-58
2022/08/25 11:20:20;;;;;;;8.68;3.15;;;31.20;80.90;;;;;;5022698;28;19932;-58
2022/08/25 11:23:16;;;;;;;4.50;2.90;;;31.10;80.20;;;;;;5022905;28;20386;-58
2022/08/25 11:25:46;;;;;;;5.55;2.88;;;31.10;80.60;;;;;;5011362;28;20476;-59
2022/08/25 11:28:19;;;;;;;4.97;2.85;;;31.10;80.10;;;;;;5023498;28;20527;-59
2022/08/25 11:30:45;;;;;;;6.55;3.08;;;31.20;79.70;;;;;;5017005;28;20116;-59
2022/08/25 11:33:16;;;;;;;4.40;2.60;;;31.10;79.40;;;;;;5022890;28;20053;-59
2022/08/25 11:35:49;;;;;;;4.47;2.90;;;31.10;79.00;;;;;;5022966;28;20045;-59
2022/08/25 11:38:52;;;;;;;3.20;2.80;;;31.20;80.40;;;;;;5024475;28;20046;-59
2022/08/25 11:41:39;;;;;;;5.63;2.80;;;31.30;81.50;;;;;;5022780;28;20053;-59
2022/08/25 11:44:26;;;;;;;8.20;3.42;;;31.40;81.00;;;;;;5023586;28;20391;-59
2022/08/25 11:47:29;;;;;;;6.25;2.92;;;31.50;79.90;;;;;;5023392;28;20154;-60
2022/08/25 11:50:22;;;;;;;7.03;4.05;;;31.60;79.40;;;;;;5023929;28;20049;-58
2022/08/25 11:52:54;;;;;;;8.07;3.50;;;31.60;80.50;;;;;;5024255;28;20428;-59
2022/08/25 11:55:47;;;;;;;4.47;3.55;;;31.70;80.60;;;;;;5021878;28;20056;-58
2022/08/25 11:59:01;;;;;;;6.75;3.40;;;31.70;80.60;;;;;;4963683;28;20136;-59
2022/08/25 12:01:41;;;;;;;5.25;3.30;;;31.50;79.00;;;;;;4976147;28;20104;-60
2022/08/25 12:04:38;;;;;;;9.63;3.30;;;31.50;80.40;;;;;;4979418;28;20097;-59
2022/08/25 12:07:04;;;;;;;6.78;3.38;;;31.50;79.40;;;;;;4979339;28;20131;-58
2022/08/25 12:09:30;;;;;;;5.25;3.30;;;31.50;80.60;;;;;;4979856;28;20583;-59
2022/08/25 12:12:27;;;;;;;3.72;3.35;;;31.60;80.90;;;;;;4983339;28;20582;-59
2022/08/25 12:14:53;;;;;;;8.90;3.55;;;31.70;80.00;;;;;;4987299;28;20045;-59
2022/08/25 12:17:25;;;;;;;6.22;3.67;;;31.70;79.60;;;;;;4979290;28;20575;-58
2022/08/25 12:19:56;;;;;;;5.55;3.40;;;31.80;80.30;;;;;;4978992;28;20109;-59
2022/08/25 12:22:22;;;;;;;8.47;3.00;;;31.80;77.80;;;;;;4978892;28;20271;-61
2022/08/25 12:25:02;;;;;;;4.95;3.75;;;31.80;79.40;;;;;;4979449;28;20053;-59
2022/08/25 12:27:49;;;;;;;6.55;2.88;;;31.80;78.10;;;;;;4977292;28;20054;-59
2022/08/25 12:30:44;;;;;;;5.57;3.55;;;31.80;79.00;;;;;;4974525;28;20928;-58
2022/08/25 12:33:28;;;;;;;7.63;3.28;;;31.70;76.80;;;;;;4972518;28;20464;-58
2022/08/25 12:36:05;;;;;;;10.80;3.85;;;31.70;79.00;;;;;;5006343;28;20091;-58
2022/08/25 12:38:51;;;;;;;5.57;3.30;;;31.70;77.60;;;;;;5011234;28;20045;-58
2022/08/25 12:41:23;;;;;;;5.05;3.20;;;31.60;78.60;;;;;;5018734;28;20122;-60
2022/08/25 12:43:52;;;;;;;4.45;3.10;;;31.60;77.70;;;;;;5014939;28;20127;-60
2022/08/25 12:46:28;;;;;;;5.13;3.08;;;31.70;78.20;;;;;;5017829;28;20058;-60
2022/08/25 12:48:54;;;;;;;5.45;3.20;;;31.60;78.10;;;;;;5018324;28;20536;-60
2022/08/25 12:51:22;;;;;;;7.72;2.78;;;31.70;79.30;;;;;;5017663;28;20120;-60
2022/08/25 12:54:24;;;;;;;4.93;2.70;;;31.70;77.20;;;;;;5013235;28;20080;-61
2022/08/25 12:56:56;;;;;;;5.57;3.15;;;31.70;76.10;;;;;;5013621;28;20042;-60
2022/08/25 12:59:37;;;;;;;;;;;31.60;75.40;;;;;;5011551;28;20710;-60
2022/08/25 13:02:54;;;;;;;3.22;2.90;;;31.70;77.30;;;;;;5017154;28;19925;-60
2022/08/25 13:06:03;;;;;;;5.85;3.08;;;31.60;77.20;;;;;;5014473;28;20049;-60
2022/08/25 13:08:43;;;;;;;3.10;2.80;;;31.70;77.00;;;;;;5010667;28;20508;-59
2022/08/25 13:11:34;;;;;;;4.18;2.88;;;31.70;78.60;;;;;;5021786;28;20098;-60
2022/08/25 13:14:14;;;;;;;5.28;2.97;;;31.70;75.40;;;;;;5004316;28;20061;-60
2022/08/25 13:16:54;;;;;;;5.13;2.63;;;31.80;76.80;;;;;;5021786;28;20131;-59